createdAt,value
2018-08-25T00:01:02.969Z,92.40
2018-08-25T00:03:35.726Z,92.30
2018-08-25T00:06:08.159Z,92.40
2018-08-25T00:08:40.554Z,92.20
2018-08-25T00:11:13.126Z,92.00
2018-08-25T00:13:45.697Z,91.90
2018-08-25T00:16:18.479Z,92.10
2018-08-25T00:18:50.905Z,91.90
2018-08-25T00:21:23.331Z,91.90
2018-08-25T00:23:55.689Z,92.40
2018-08-25T00:26:28.593Z,96.00
2018-08-25T00:29:00.984Z,96.90
2018-08-25T00:31:34.305Z,96.50
2018-08-25T00:34:06.696Z,96.70
2018-08-25T00:36:39.172Z,97.90
2018-08-25T00:39:11.745Z,97.90
2018-08-25T00:41:44.187Z,97.60
2018-08-25T00:44:16.609Z,97.00
2018-08-25T00:46:49.069Z,97.50
2018-08-25T00:49:21.605Z,99.10
2018-08-25T00:51:54.054Z,99.80
2018-08-25T00:54:26.511Z,99.40
2018-08-25T00:56:58.985Z,99.50
2018-08-25T00:59:31.551Z,99.80
2018-08-25T01:02:04.144Z,99.90
2018-08-25T01:04:36.955Z,99.70
2018-08-25T01:07:09.654Z,99.90
2018-08-25T01:09:42.182Z,99.90
2018-08-25T01:14:47.621Z,99.90
2018-08-25T01:17:20.126Z,99.90
2018-08-25T01:19:52.615Z,99.90
2018-08-25T01:22:25.014Z,99.90
2018-08-25T01:24:57.456Z,98.50
2018-08-25T01:27:30.031Z,99.90
2018-08-25T01:30:02.458Z,98.20
2018-08-25T01:32:35.024Z,98.40
2018-08-25T01:35:07.473Z,98.50
2018-08-25T01:37:40.210Z,97.70
2018-08-25T01:40:12.634Z,99.90
2018-08-25T01:42:45.040Z,99.90
2018-08-25T01:45:17.441Z,99.90
2018-08-25T01:47:50.615Z,99.90
2018-08-25T01:50:23.079Z,99.90
2018-08-25T01:52:55.833Z,88.40
2018-08-25T01:55:28.332Z,93.20
2018-08-25T01:58:00.781Z,92.60
2018-08-25T02:00:33.567Z,92.20
2018-08-25T02:03:05.956Z,92.40
2018-08-25T02:05:38.373Z,91.10
2018-08-25T02:08:10.870Z,91.00
2018-08-25T02:10:43.465Z,90.90
2018-08-25T02:13:15.865Z,90.80
2018-08-25T02:15:48.569Z,92.20
2018-08-25T05:28:57.633Z,90.80
2018-08-25T05:31:30.282Z,91.10
2018-08-25T05:34:02.755Z,91.10
2018-08-25T05:36:35.138Z,90.90
2018-08-25T05:39:09.443Z,91.00
2018-08-25T05:41:41.907Z,91.00
2018-08-25T05:44:14.633Z,91.30
2018-08-25T05:46:47.064Z,91.00
2018-08-25T05:49:19.500Z,90.90
2018-08-25T05:51:52.052Z,90.70
2018-08-25T05:54:24.491Z,91.20
2018-08-25T05:56:57.210Z,91.50
2018-08-25T05:59:29.795Z,91.20
2018-08-25T06:02:02.353Z,91.10
2018-08-25T06:04:34.739Z,91.20
2018-08-25T06:07:07.395Z,90.90
2018-08-25T06:09:40.386Z,91.20
2018-08-25T06:12:13.059Z,91.00
2018-08-25T06:14:45.523Z,90.90
2018-08-25T06:17:17.994Z,90.90
2018-08-25T06:19:51.072Z,91.00
2018-08-25T06:22:23.561Z,91.10
2018-08-25T06:24:56.495Z,91.40
2018-08-25T06:27:29.043Z,91.80
2018-08-25T06:30:01.640Z,91.40
2018-08-25T06:32:34.503Z,91.30
2018-08-25T06:35:08.484Z,91.40
2018-08-25T06:37:41.257Z,91.30
2018-08-25T06:40:14.258Z,91.10
2018-08-25T06:42:46.864Z,91.30
2018-08-25T06:45:19.639Z,91.30
2018-08-25T06:47:52.192Z,90.80
2018-08-25T06:50:24.787Z,90.90
2018-08-25T06:52:57.360Z,90.60
2018-08-25T06:55:30.131Z,90.70
2018-08-25T06:58:03.222Z,90.90
2018-08-25T07:00:36.068Z,91.00
2018-08-25T07:03:08.915Z,90.80
2018-08-25T07:05:41.774Z,90.50
2018-08-25T07:08:14.245Z,90.20
2018-08-25T07:10:46.751Z,90.10
2018-08-25T07:13:19.466Z,90.00
2018-08-25T07:15:52.232Z,88.70
2018-08-25T07:18:25.051Z,89.80
2018-08-25T07:20:57.468Z,89.20
2018-08-25T07:23:29.843Z,87.20
2018-08-25T07:26:02.372Z,86.20
2018-08-25T07:28:35.054Z,87.00
2018-08-25T07:31:08.026Z,87.60
2018-08-25T07:33:41.756Z,88.00
2018-08-25T07:36:15.183Z,88.80
2018-08-25T07:38:47.897Z,88.80
2018-08-25T07:41:21.018Z,88.90
2018-08-25T07:43:53.658Z,88.60
2018-08-25T07:46:26.112Z,89.80
2018-08-25T07:48:58.880Z,90.40
2018-08-25T07:51:31.658Z,90.40
2018-08-25T07:54:04.244Z,91.20
2018-08-25T07:56:36.980Z,90.60
2018-08-25T07:59:09.498Z,90.80
2018-08-25T08:01:41.856Z,90.90
2018-08-25T08:04:14.260Z,91.00
2018-08-25T08:06:46.738Z,90.60
2018-08-25T08:09:19.229Z,90.70
2018-08-25T08:11:51.739Z,90.30
2018-08-25T08:14:24.316Z,90.70
2018-08-25T08:16:56.770Z,90.60
2018-08-25T08:19:29.225Z,88.70
2018-08-25T08:22:01.733Z,87.70
2018-08-25T08:24:34.834Z,89.40
2018-08-25T08:27:07.511Z,87.20
2018-08-25T08:29:40.154Z,86.50
2018-08-25T08:32:13.013Z,89.30
2018-08-25T08:34:45.674Z,89.80
2018-08-25T08:37:18.207Z,89.70
2018-08-25T08:39:50.940Z,85.00
2018-08-25T08:42:23.467Z,87.30
2018-08-25T08:44:56.731Z,86.60
2018-08-25T08:47:29.172Z,88.00
2018-08-25T08:50:01.834Z,88.00
2018-08-25T08:52:34.202Z,87.30
2018-08-25T08:55:07.014Z,85.60
2018-08-25T08:57:39.438Z,85.70
2018-08-25T09:00:12.359Z,85.50
2018-08-25T09:02:45.213Z,84.60
2018-08-25T09:05:18.768Z,84.10
2018-08-25T09:07:51.254Z,84.20
2018-08-25T09:10:23.882Z,84.80
2018-08-25T09:12:56.509Z,83.50
2018-08-25T09:15:29.232Z,85.70
2018-08-25T09:18:02.133Z,85.50
2018-08-25T09:20:34.572Z,84.80
2018-08-25T09:23:07.216Z,84.00
2018-08-25T09:25:39.678Z,84.20
2018-08-25T09:28:12.370Z,83.60
2018-08-25T09:30:44.994Z,83.80
2018-08-25T09:33:17.904Z,82.80
2018-08-25T09:35:50.904Z,82.70
2018-08-25T09:38:23.598Z,82.30
2018-08-25T09:40:56.607Z,82.60
2018-08-25T09:43:29.414Z,80.50
2018-08-25T09:46:02.204Z,79.80
2018-08-25T09:48:34.894Z,78.70
2018-08-25T09:51:07.772Z,79.70
2018-08-25T09:53:40.662Z,80.00
2018-08-25T09:56:13.499Z,80.00
2018-08-25T09:58:46.277Z,80.50
2018-08-25T10:01:24.359Z,78.80
2018-08-25T10:03:57.033Z,78.30
2018-08-25T10:06:29.786Z,78.10
2018-08-25T10:09:02.626Z,78.20
2018-08-25T10:11:35.447Z,78.10
2018-08-25T10:14:08.191Z,77.10
2018-08-25T10:16:41.163Z,76.40
2018-08-25T10:19:13.796Z,76.10
2018-08-25T10:21:46.303Z,75.60
2018-08-25T10:24:18.771Z,75.00
2018-08-25T10:26:51.538Z,75.40
2018-08-25T10:29:24.162Z,74.80
2018-08-25T10:31:57.137Z,73.60
2018-08-25T10:34:29.558Z,72.20
2018-08-25T10:37:02.634Z,73.10
2018-08-25T10:39:35.292Z,73.90
2018-08-25T10:42:08.135Z,73.70
2018-08-25T10:44:40.670Z,73.30
2018-08-25T10:47:13.601Z,73.30
2018-08-25T10:49:46.310Z,72.70
2018-08-25T10:52:18.819Z,73.90
2018-08-25T10:54:51.652Z,71.90
2018-08-25T10:57:24.472Z,73.30
2018-08-25T10:59:57.470Z,72.30
2018-08-25T11:02:30.148Z,72.40
2018-08-25T11:05:02.935Z,71.90
2018-08-25T11:07:35.538Z,72.20
2018-08-25T11:10:08.208Z,72.60
2018-08-25T11:12:41.275Z,72.30
2018-08-25T11:15:13.882Z,72.40
2018-08-25T11:17:46.359Z,71.90
2018-08-25T11:20:18.972Z,72.10
2018-08-25T11:22:51.578Z,72.60
2018-08-25T11:25:24.194Z,73.50
2018-08-25T11:27:56.643Z,73.90
2018-08-25T11:30:29.098Z,73.50
2018-08-25T11:33:01.643Z,73.90
2018-08-25T11:35:34.038Z,73.50
2018-08-25T11:38:06.669Z,73.80
2018-08-25T11:40:39.433Z,73.90
2018-08-25T11:43:11.872Z,72.10
2018-08-25T11:45:44.458Z,71.10
2018-08-25T11:48:17.628Z,71.20
2018-08-25T11:50:50.726Z,70.40
2018-08-25T11:53:23.796Z,69.50
2018-08-25T11:55:56.347Z,69.50
2018-08-25T11:58:29.284Z,70.10
2018-08-25T12:01:01.970Z,70.50
2018-08-25T12:03:37.142Z,71.10
2018-08-25T12:06:09.956Z,70.30
2018-08-25T12:08:43.010Z,68.70
2018-08-25T12:11:16.140Z,68.50
2018-08-25T12:13:49.298Z,68.00
2018-08-25T12:16:22.179Z,67.00
2018-08-25T12:18:54.823Z,66.70
2018-08-25T12:21:28.183Z,66.60
2018-08-25T12:24:01.945Z,66.60
2018-08-25T12:26:34.764Z,67.20
2018-08-25T12:29:07.425Z,66.90
2018-08-25T12:31:39.879Z,66.80
2018-08-25T12:34:12.305Z,66.60
2018-08-25T12:36:44.733Z,65.80
2018-08-25T12:39:17.997Z,65.90
2018-08-25T12:41:50.649Z,66.10
2018-08-25T12:44:24.055Z,66.30
2018-08-25T12:46:56.643Z,66.70
2018-08-25T12:49:29.210Z,67.10
2018-08-25T12:52:01.774Z,67.50
2018-08-25T12:54:36.872Z,67.50
2018-08-25T12:57:09.419Z,68.40
2018-08-25T12:59:42.142Z,69.70
2018-08-25T13:02:14.807Z,70.80
2018-08-25T13:04:47.686Z,71.60
2018-08-25T13:07:21.597Z,75.30
2018-08-25T13:09:54.219Z,79.30
2018-08-25T13:12:26.710Z,79.40
2018-08-25T13:15:00.206Z,81.70
2018-08-25T13:17:32.820Z,83.70
2018-08-25T13:20:05.796Z,84.20
2018-08-25T13:22:38.583Z,99.90
2018-08-25T13:30:23.657Z,90.40
2018-08-25T13:32:56.758Z,91.00
2018-08-25T13:35:29.594Z,92.10
2018-08-25T13:38:02.212Z,92.80
2018-08-25T13:40:35.315Z,93.40
2018-08-25T13:43:09.347Z,94.00
2018-08-25T13:45:42.034Z,94.10
2018-08-25T13:48:14.956Z,94.20
2018-08-25T13:50:48.215Z,95.10
2018-08-25T13:53:20.931Z,95.30
2018-08-25T13:55:54.603Z,95.80
2018-08-25T13:58:27.684Z,95.30
2018-08-25T14:01:00.513Z,95.60
2018-08-25T14:03:33.299Z,95.30
2018-08-25T14:06:06.642Z,95.20
2018-08-25T14:08:39.762Z,95.20
2018-08-25T14:11:12.449Z,95.80
2018-08-25T14:13:45.660Z,95.30
2018-08-25T14:16:18.607Z,95.40
2018-08-25T14:18:52.079Z,94.60
2018-08-25T14:21:25.518Z,94.40
2018-08-25T14:23:58.082Z,94.60
2018-08-25T14:26:30.902Z,94.50
2018-08-25T14:29:03.870Z,94.80
2018-08-25T14:31:37.052Z,94.60
2018-08-25T14:34:09.527Z,94.60
2018-08-25T14:36:42.439Z,94.80
2018-08-25T14:39:15.923Z,94.50
2018-08-25T14:41:49.178Z,94.00
2018-08-25T14:44:21.636Z,94.00
2018-08-25T14:46:54.412Z,93.80
2018-08-25T14:49:26.918Z,98.80
2018-08-25T14:51:59.804Z,92.60
2018-08-25T14:54:32.735Z,92.60
2018-08-25T14:57:05.333Z,93.40
2018-08-25T14:59:37.772Z,92.90
2018-08-25T15:02:12.178Z,92.40
2018-08-25T15:04:44.581Z,92.50
2018-08-25T15:07:16.988Z,92.20
2018-08-25T15:09:49.538Z,92.00
2018-08-25T15:12:22.006Z,92.10
2018-08-25T15:14:54.713Z,92.50
2018-08-25T15:17:27.834Z,91.60
2018-08-25T15:20:00.271Z,91.60
2018-08-25T15:22:33.060Z,91.30
2018-08-25T15:25:05.560Z,91.70
2018-08-25T15:27:38.444Z,91.30
2018-08-25T15:30:11.253Z,91.50
2018-08-25T15:32:43.847Z,91.40
2018-08-25T15:35:16.274Z,91.40
2018-08-25T15:37:48.720Z,91.30
2018-08-25T15:40:21.108Z,91.10
2018-08-25T15:42:53.654Z,90.70
2018-08-25T15:45:26.113Z,90.40
2018-08-25T15:47:58.922Z,90.30
2018-08-25T15:50:31.312Z,90.20
2018-08-25T15:53:03.795Z,88.80
2018-08-25T15:55:36.312Z,86.50
2018-08-25T15:58:08.698Z,83.00
2018-08-25T16:00:41.245Z,81.20
2018-08-25T16:03:13.804Z,79.90
2018-08-25T16:05:46.273Z,79.20
2018-08-25T16:08:18.799Z,78.90
2018-08-25T16:10:51.422Z,78.90
2018-08-25T16:13:24.334Z,79.40
2018-08-25T16:15:56.922Z,81.70
2018-08-25T16:18:29.871Z,85.20
2018-08-25T16:21:02.848Z,86.90
2018-08-25T16:23:35.569Z,87.90
2018-08-25T16:26:08.180Z,88.70
2018-08-25T16:28:40.766Z,88.30
2018-08-25T16:31:13.426Z,87.90
2018-08-25T16:33:46.112Z,88.00
2018-08-25T16:36:18.957Z,88.10
2018-08-25T16:38:51.778Z,88.40
2018-08-25T16:41:26.655Z,88.70
2018-08-25T16:44:00.128Z,88.90
2018-08-25T16:46:34.913Z,88.40
2018-08-25T16:49:08.175Z,88.00
2018-08-25T16:51:41.171Z,88.10
2018-08-25T16:54:13.801Z,87.50
2018-08-25T16:56:46.569Z,86.60
2018-08-25T16:59:20.565Z,86.60
2018-08-25T17:01:53.235Z,87.00
2018-08-25T17:04:26.214Z,87.00
2018-08-25T17:06:59.390Z,87.20
2018-08-25T17:09:32.273Z,87.20
2018-08-25T17:12:05.332Z,87.20
2018-08-25T17:14:38.260Z,87.50
2018-08-25T17:17:11.310Z,87.20
2018-08-25T17:19:44.518Z,87.40
2018-08-25T17:22:17.994Z,87.60
2018-08-25T17:24:50.857Z,87.40
2018-08-25T17:27:23.580Z,87.40
2018-08-25T17:29:56.212Z,87.40
2018-08-25T17:32:29.519Z,87.40
2018-08-25T17:35:03.131Z,86.60
2018-08-25T17:37:35.860Z,85.50
2018-08-25T17:40:09.179Z,85.40
2018-08-25T17:42:41.841Z,84.60
2018-08-25T17:45:14.732Z,85.20
2018-08-25T17:47:47.253Z,85.40
2018-08-25T17:50:20.055Z,85.10
2018-08-25T17:52:52.955Z,84.70
2018-08-25T17:55:25.935Z,84.40
2018-08-25T17:57:59.446Z,84.40
2018-08-25T18:00:32.039Z,84.70
2018-08-25T18:03:04.852Z,85.00
2018-08-25T18:05:37.794Z,85.00
2018-08-25T18:08:10.749Z,85.00
2018-08-25T18:10:43.302Z,85.30
2018-08-25T18:13:20.780Z,85.60
2018-08-25T18:15:53.540Z,85.90
2018-08-25T18:18:26.644Z,86.40
2018-08-25T18:20:59.143Z,87.20
2018-08-25T18:23:31.874Z,86.50
2018-08-25T18:26:04.485Z,86.90
2018-08-25T18:28:38.137Z,87.10
2018-08-25T22:25:39.910Z,94.40
2018-08-25T22:28:13.275Z,94.70
2018-08-25T22:30:47.181Z,94.70
2018-08-25T22:33:21.748Z,95.10
2018-08-25T22:35:55.134Z,94.80
2018-08-25T22:38:27.500Z,94.80
2018-08-25T22:41:00.055Z,94.70
2018-08-25T22:43:32.785Z,94.70
2018-08-25T22:46:06.751Z,94.70
2018-08-25T22:48:40.046Z,94.90
2018-08-25T22:51:13.014Z,94.90
2018-08-25T22:53:46.858Z,94.90
2018-08-25T22:56:19.338Z,95.00
2018-08-25T22:58:51.752Z,95.10
2018-08-25T23:01:24.184Z,95.20
2018-08-25T23:03:56.843Z,95.20
2018-08-25T23:06:29.297Z,95.20
2018-08-25T23:09:01.775Z,95.40
2018-08-25T23:11:34.289Z,95.40
2018-08-25T23:14:07.088Z,95.40
2018-08-25T23:16:39.498Z,95.50
2018-08-25T23:19:12.622Z,95.60
2018-08-25T23:21:45.074Z,95.60
2018-08-25T23:24:17.483Z,95.40
2018-08-25T23:26:49.931Z,95.30
2018-08-25T23:29:22.400Z,95.70
2018-08-25T23:31:54.890Z,95.30
2018-08-25T23:34:27.314Z,95.30
2018-08-25T23:36:59.795Z,95.70
2018-08-25T23:39:32.173Z,95.70
2018-08-25T23:42:04.641Z,95.90
2018-08-25T23:44:37.101Z,95.80
2018-08-25T23:47:09.505Z,96.20
2018-08-25T23:49:41.925Z,96.20
2018-08-25T23:52:14.541Z,96.20
2018-08-25T23:54:47.189Z,96.30
2018-08-25T23:57:19.574Z,96.30
2018-08-25T23:59:52.006Z,96.30
